메인 페이지
METAR-TAF:

METAR-TAF

공항 :

휴스턴, 텍사스, 미국

조지 부시 인터콘티넨털 공항

위도: 29-59-33N, 경도: 095-21-50W, 고도: 29m

현재 날씨관측

예보는 46분 전, 09:53시(UTC)에 발표되었습니다.
무풍
온도 17°C
습도 94%
기압 1018 hPa
시정: 16.1km
고도 25000ft 상공 구름 조금

METAR: KIAH 250953Z 00000KT 10SM FEW250 17/16 A3005 RMK AO2 SLP176 T01720161

시각: 05:39 (10:39 UTC)

예보

예보는 1 시간 42분 전, 08:57시(UTC)에 발표되었습니다.
예보 대상 시간: 25일 09시부터 26일 12시까지 (UTC)
여러 방향의 바람 2kt
시정: 10km
고도 25000ft 상공 구름 보통
25일 1600시부터 (UTC)
서남서7kt
시정: 10km
고도 5000ft 상공 구름 보통
고도 25000ft 상공 구름 보통
26일 0100시부터 (UTC)
북북서8kt
시정: 10km
고도 5000ft 상공 구름 많음
26일 0300시부터 (UTC)
11kt
시정: 10km
고도 2500ft 상공 구름 보통
고도 5000ft 상공 구름 많음
시계 내 소나기
26일 0700시부터 (UTC)
8kt
시정: 10km
고도 5000ft 상공 구름 보통

TAF: KIAH 250857Z 2509/2612 VRB02KT P6SM SCT250 FM251600 24007KT P6SM SCT050 SCT250 FM260100 34008KT P6SM BKN050 FM260300 35011KT P6SM VCSH SCT025 BKN050 FM260700 35008KT P6SM SCT050

4,000개 이상의 공항 관측 자료 및 예보 (METAR 및 TAF 보고).

지도상에서 검색 가능한 기상관측소가 노란 점과 빨간 점으로 표시되어 있습니다.

기상관측소 명을 보려면 표시 위로 마우스를 이동하세요.

날씨 관측과 예보를 보려면 클릭하세요.

지도 변경 : 확대하려면 엑스 표시가 있는 녹색 버튼, 축소하려면 빼기 표시가 있는 녹색 버튼, 다음 페이지의 지도를 보려면 녹색 화살표를 클릭하세요.


METAR-TAF: